createdAt,value
2018-11-14T00:02:25.801Z,5.07
2018-11-14T00:07:28.396Z,5.10
2018-11-14T00:12:45.515Z,4.90
2018-11-14T00:17:48.227Z,5.50
2018-11-14T00:22:50.817Z,4.87
2018-11-14T00:27:52.889Z,4.53
2018-11-14T00:32:54.845Z,5.00
2018-11-14T00:37:56.801Z,5.00
2018-11-14T00:42:59.202Z,5.10
2018-11-14T00:48:01.630Z,5.50
2018-11-14T00:53:03.839Z,5.47
2018-11-14T00:58:05.871Z,5.13
2018-11-14T01:03:07.914Z,5.77
2018-11-14T01:08:09.886Z,5.20
2018-11-14T01:13:12.011Z,4.70
2018-11-14T01:18:14.215Z,4.80
2018-11-14T01:23:16.243Z,5.80
2018-11-14T01:28:18.574Z,5.03
2018-11-14T01:33:20.559Z,4.80
2018-11-14T01:38:22.823Z,4.60
2018-11-14T01:43:25.083Z,5.33
2018-11-14T01:48:27.614Z,4.40
2018-11-14T01:53:29.602Z,4.80
2018-11-14T01:58:31.571Z,4.63
2018-11-14T02:03:33.953Z,4.90
2018-11-14T02:08:35.957Z,4.90
2018-11-14T02:13:37.952Z,5.10
2018-11-14T02:18:40.613Z,5.30
2018-11-14T02:23:42.582Z,5.87
2018-11-14T02:28:44.875Z,6.33
2018-11-14T02:33:46.884Z,5.97
2018-11-14T02:38:48.911Z,6.10
2018-11-14T02:43:50.995Z,5.97
2018-11-14T02:48:53.293Z,5.90
2018-11-14T02:53:55.433Z,5.40
2018-11-14T02:58:57.422Z,5.90
2018-11-14T03:03:59.637Z,5.77
2018-11-14T03:09:01.644Z,5.43
2018-11-14T03:14:03.971Z,6.00
2018-11-14T03:19:06.031Z,5.60
2018-11-14T03:24:08.163Z,5.30
2018-11-14T03:29:10.135Z,6.23
2018-11-14T03:34:12.118Z,6.73
2018-11-14T03:39:14.502Z,6.63
2018-11-14T03:44:16.991Z,7.13
2018-11-14T03:49:19.880Z,6.03
2018-11-14T03:54:21.866Z,6.40
2018-11-14T03:59:23.859Z,5.97
2018-11-14T04:04:26.559Z,6.77
2018-11-14T04:09:28.577Z,7.40
2018-11-14T04:14:30.706Z,7.03
2018-11-14T04:19:33.811Z,8.10
2018-11-14T04:24:35.799Z,9.73
2018-11-14T04:29:37.794Z,8.60
2018-11-14T04:34:40.055Z,9.70
2018-11-14T04:39:42.307Z,11.17
2018-11-14T04:44:44.307Z,13.17
2018-11-14T04:49:46.810Z,13.97
2018-11-14T04:54:48.838Z,14.97
2018-11-14T04:59:50.904Z,17.20
2018-11-14T05:04:52.940Z,15.80
2018-11-14T05:09:55.631Z,16.90
2018-11-14T05:14:57.647Z,16.50
2018-11-14T05:20:00.797Z,18.37
2018-11-14T05:25:03.143Z,18.70
2018-11-14T05:30:07.720Z,19.67
2018-11-14T05:35:10.700Z,20.70
2018-11-14T05:40:14.125Z,19.40
2018-11-14T05:45:25.072Z,19.53
2018-11-14T05:50:27.784Z,17.07
2018-11-14T05:55:29.803Z,17.60
2018-11-14T06:00:31.912Z,17.03
2018-11-14T06:05:33.978Z,17.00
2018-11-14T06:10:36.372Z,18.47
2018-11-14T06:15:38.413Z,18.53
2018-11-14T06:20:40.477Z,17.90
2018-11-14T06:25:42.718Z,15.13
2018-11-14T06:30:44.759Z,12.57
2018-11-14T06:35:46.794Z,10.80
2018-11-14T06:40:48.820Z,9.27
2018-11-14T06:45:50.865Z,10.03
2018-11-14T06:50:52.969Z,9.90
2018-11-14T06:55:55.032Z,10.80
2018-11-14T07:00:57.089Z,9.20
2018-11-14T07:05:59.274Z,10.77
2018-11-14T07:11:01.515Z,10.47
2018-11-14T07:16:03.438Z,11.17
2018-11-14T07:21:05.514Z,10.90
2018-11-14T07:26:07.534Z,12.43
2018-11-14T07:31:09.526Z,13.10
2018-11-14T07:36:11.534Z,12.17
2018-11-14T07:41:15.802Z,14.03
2018-11-14T07:46:18.010Z,14.33
2018-11-14T07:51:20.130Z,14.37
2018-11-14T07:56:22.502Z,14.87
2018-11-14T08:01:24.994Z,13.83
2018-11-14T08:06:27.027Z,15.30
2018-11-14T08:11:29.044Z,14.87
2018-11-14T08:16:31.066Z,13.93
2018-11-14T08:21:33.683Z,13.70
2018-11-14T08:26:36.014Z,12.93
2018-11-14T08:31:37.985Z,12.70
2018-11-14T08:36:40.174Z,12.80
2018-11-14T08:41:42.178Z,13.57
2018-11-14T08:46:44.199Z,13.57
2018-11-14T08:51:46.512Z,13.47
2018-11-14T08:56:48.555Z,13.83
2018-11-14T09:01:50.610Z,13.47
2018-11-14T09:06:52.760Z,12.20
2018-11-14T09:11:55.698Z,12.13
2018-11-14T09:16:57.730Z,11.33
2018-11-14T09:22:00.531Z,12.10
2018-11-14T09:27:02.643Z,12.43
2018-11-14T09:32:04.715Z,11.60
2018-11-14T09:37:06.731Z,11.77
2018-11-14T09:42:08.769Z,15.47
2018-11-14T09:47:11.093Z,11.17
2018-11-14T09:52:13.197Z,11.20
2018-11-14T09:57:15.274Z,10.97
2018-11-14T10:02:17.341Z,8.97
2018-11-14T10:07:19.367Z,8.90
2018-11-14T10:12:21.593Z,10.77
2018-11-14T10:17:23.847Z,10.23
2018-11-14T10:22:26.206Z,10.00
2018-11-14T10:27:29.106Z,10.00
2018-11-14T10:32:32.692Z,7.93
2018-11-14T10:37:34.756Z,8.70
2018-11-14T10:42:37.709Z,8.47
2018-11-14T10:47:40.433Z,7.07
2018-11-14T10:52:42.518Z,8.40
2018-11-14T10:57:45.579Z,6.53
2018-11-14T11:02:53.706Z,5.87
2018-11-14T11:08:02.079Z,6.63
2018-11-14T11:13:15.465Z,5.63
2018-11-14T11:18:19.031Z,5.57
2018-11-14T11:23:21.176Z,6.10
2018-11-14T11:28:24.243Z,5.30
2018-11-14T11:33:26.682Z,5.30
2018-11-14T11:38:29.411Z,5.40
2018-11-14T11:43:32.256Z,5.57
2018-11-14T11:48:35.197Z,6.10
2018-11-14T11:53:39.361Z,6.20
2018-11-14T11:58:42.330Z,6.70
2018-11-14T12:03:45.874Z,5.53
2018-11-14T12:08:49.324Z,5.87
2018-11-14T12:13:54.175Z,5.90
2018-11-14T12:18:56.885Z,6.20
2018-11-14T12:23:59.004Z,5.87
2018-11-14T12:29:01.753Z,5.70
2018-11-14T12:34:14.266Z,4.83
2018-11-14T12:39:16.347Z,5.43
2018-11-14T12:44:19.080Z,4.57
2018-11-14T12:49:21.874Z,4.70
2018-11-14T12:54:24.813Z,4.17
2018-11-14T12:59:27.011Z,3.97
2018-11-14T13:04:29.044Z,4.30
2018-11-14T13:09:31.481Z,4.20
2018-11-14T13:14:34.101Z,4.13
2018-11-14T13:19:36.135Z,3.60
2018-11-14T13:24:38.648Z,3.50
2018-11-14T13:29:42.060Z,3.87
2018-11-14T13:34:44.118Z,3.70
2018-11-14T13:39:46.204Z,4.03
2018-11-14T13:44:48.814Z,3.30
2018-11-14T13:49:51.220Z,2.90
2018-11-14T13:54:53.233Z,3.90
2018-11-14T13:59:55.287Z,4.37
2018-11-14T14:04:57.303Z,4.50
2018-11-14T14:09:59.815Z,4.27
2018-11-14T14:15:02.005Z,4.50
2018-11-14T14:20:05.065Z,4.80
2018-11-14T14:25:08.773Z,4.90
2018-11-14T14:30:16.141Z,4.90
2018-11-14T14:35:20.355Z,5.63
2018-11-14T14:40:22.815Z,4.90
2018-11-14T14:45:26.050Z,6.00
2018-11-14T14:50:28.134Z,6.00
2018-11-14T14:55:30.251Z,6.87
2018-11-14T15:00:32.323Z,9.50
2018-11-14T15:05:34.443Z,8.13
2018-11-14T15:10:36.571Z,8.83
2018-11-14T15:15:38.601Z,9.47
2018-11-14T15:20:40.954Z,9.07
2018-11-14T15:25:43.011Z,6.77
2018-11-14T15:30:45.697Z,5.50
2018-11-14T15:35:47.765Z,6.17
2018-11-14T15:40:50.230Z,6.73
2018-11-14T15:45:52.565Z,7.07
2018-11-14T15:50:56.323Z,6.10
2018-11-14T15:55:58.322Z,5.47
2018-11-14T16:01:00.406Z,5.30
2018-11-14T16:06:03.728Z,5.57
2018-11-14T16:11:05.984Z,6.63
2018-11-14T16:16:08.033Z,6.70
2018-11-14T16:21:10.277Z,7.83
2018-11-14T16:26:13.409Z,6.90
2018-11-14T16:31:16.352Z,7.53
2018-11-14T16:36:18.996Z,8.47
2018-11-14T16:41:20.986Z,7.70
2018-11-14T16:46:24.130Z,7.30
2018-11-14T16:51:26.549Z,7.47
2018-11-14T16:56:29.526Z,8.90
2018-11-14T17:01:32.050Z,13.90
2018-11-14T17:06:34.687Z,12.43
2018-11-14T17:11:43.706Z,9.40
2018-11-14T17:16:45.950Z,9.63
2018-11-14T17:21:48.316Z,10.27
2018-11-14T17:26:50.757Z,11.90
2018-11-14T17:31:54.016Z,9.00
2018-11-14T17:36:56.659Z,9.33
2018-11-14T17:41:59.653Z,19.73
2018-11-14T17:47:01.494Z,10.90
2018-11-14T17:52:03.532Z,8.47
2018-11-14T17:57:05.603Z,7.43
2018-11-14T18:02:07.673Z,7.80
2018-11-14T18:07:11.585Z,8.03
2018-11-14T18:12:14.599Z,7.27
2018-11-14T18:17:17.450Z,9.27
2018-11-14T18:22:20.768Z,10.07
2018-11-14T18:27:23.253Z,9.60
2018-11-14T18:32:26.351Z,9.63
2018-11-14T18:37:28.558Z,10.60
2018-11-14T18:42:30.606Z,10.27
2018-11-14T18:47:32.686Z,12.70
2018-11-14T18:52:36.339Z,13.30
2018-11-14T18:57:38.997Z,13.53
2018-11-14T19:02:42.103Z,14.27
2018-11-14T19:07:45.870Z,13.90
2018-11-14T19:12:49.451Z,14.03
2018-11-14T19:17:52.547Z,13.77
2018-11-14T19:22:57.594Z,15.80
2018-11-14T19:28:00.406Z,15.07
2018-11-14T19:33:03.119Z,14.73
2018-11-14T19:38:05.173Z,15.70
2018-11-14T19:43:08.860Z,16.43
2018-11-14T19:48:12.039Z,16.03
2018-11-14T19:53:14.918Z,16.83
2018-11-14T19:58:16.999Z,17.30
2018-11-14T20:03:19.096Z,16.50
2018-11-14T20:08:22.234Z,17.73
2018-11-14T20:13:24.867Z,16.93
2018-11-14T20:18:27.862Z,17.27
2018-11-14T20:23:29.974Z,16.83
2018-11-14T20:28:33.707Z,16.80
2018-11-14T20:33:35.957Z,17.70
2018-11-14T20:38:38.005Z,18.50
2018-11-14T20:43:40.657Z,19.00
2018-11-14T20:48:42.751Z,17.70
2018-11-14T20:53:44.924Z,18.93
2018-11-14T20:58:47.227Z,17.97
2018-11-14T21:03:50.294Z,17.50
2018-11-14T21:08:52.999Z,19.10
2018-11-14T21:13:55.312Z,17.90
2018-11-14T21:18:57.351Z,18.20
2018-11-14T21:23:59.554Z,19.20
2018-11-14T21:29:01.635Z,18.70
2018-11-14T21:34:03.794Z,20.53
2018-11-14T21:39:09.174Z,19.20
2018-11-14T21:44:11.995Z,18.93
2018-11-14T21:49:19.782Z,20.57
2018-11-14T21:54:22.175Z,19.60
2018-11-14T21:59:24.191Z,19.13
2018-11-14T22:04:26.275Z,20.13
2018-11-14T22:09:28.509Z,20.90
2018-11-14T22:14:30.543Z,19.53
2018-11-14T22:19:32.848Z,19.30
2018-11-14T22:24:35.158Z,18.57
2018-11-14T22:29:37.543Z,18.80
2018-11-14T22:34:39.689Z,18.93
2018-11-14T22:39:41.631Z,19.43
2018-11-14T22:44:43.710Z,18.93
2018-11-14T22:49:46.679Z,20.57
2018-11-14T22:54:48.872Z,18.70
2018-11-14T22:59:51.231Z,20.47
2018-11-14T23:04:53.953Z,20.03
2018-11-14T23:09:55.986Z,19.70
2018-11-14T23:14:57.990Z,20.77
2018-11-14T23:20:00.546Z,21.10
2018-11-14T23:25:02.790Z,21.23
2018-11-14T23:30:05.943Z,21.67
2018-11-14T23:35:13.705Z,21.27
2018-11-14T23:40:15.718Z,22.60
2018-11-14T23:45:20.245Z,21.87
2018-11-14T23:50:25.359Z,23.37
2018-11-14T23:55:28.259Z,23.57
